Hervey City, Illinois
Current Conditions -  °F | °C
As of 6:54 AM on Monday 22 Dec 2014 (Local Time) from KDEC Reporting Station
Haze Haze  
Wind Chill: -3°   Ceiling: 4300
Heat Index:   Visibility: 5mi
Dew Point: -1°   Wind: 9mph
Humidity: 89%   Direction: 120°ESE
Pressure: 29.87"   Gusts: NA
Location:  39.7516°N, 88.8516°W
Report Text: KDEC 221254Z 12008KT 5SM UP BR SCT033 OVC043 01/M01 A2987 RMK AO2 UPB36 SLP120 P0000 T00111006
Loading
Personal Weather Stations






























Interactive Weather Map New forecast layout! Learn more

10-Day Weather Forecast

Advertisements
Track Severe Weather on mobile